Steeltown, Texas
Current Conditions -  °F | °C
As of 3:53 AM on Friday 19 Dec 2014 (Local Time) from KBPT Reporting Station
Light Rain Light Rain  
Wind Chill: 59°   Ceiling: 3500
Heat Index: 59°   Visibility: 5mi
Dew Point: 57°   Wind: 20mph
Humidity: 93%   Direction: 50°NE
Pressure: 30.03"   Gusts: NA
Location:  29.9495°N, 93.9207°W
Report Text: KBPT 190953Z AUTO 05017KT 5SM -RA BR FEW026 OVC035 15/14 A3003 RMK AO2 LTG DSNT ALQDS TSB0855E33 SLP168 P0034 T01500139
Loading
Personal Weather Stations






























Interactive Weather Map New forecast layout! Learn more

10-Day Weather Forecast

Advertisements
Track Severe Weather on mobile